sensor_id;sensor_type;location;lat;lon;timestamp;P1;durP1;ratioP1;P2;durP2;ratioP2
351;SDS011;164;50.784;6.496;2023-04-24T00:00:53;1.27;;;1.08;;
351;SDS011;164;50.784;6.496;2023-04-24T00:03:21;3.00;;;1.20;;
351;SDS011;164;50.784;6.496;2023-04-24T00:05:48;1.15;;;1.13;;
351;SDS011;164;50.784;6.496;2023-04-24T00:08:16;4.05;;;1.30;;
351;SDS011;164;50.784;6.496;2023-04-24T00:10:43;1.55;;;0.90;;
351;SDS011;164;50.784;6.496;2023-04-24T00:13:10;1.67;;;1.25;;
351;SDS011;164;50.784;6.496;2023-04-24T00:15:39;3.35;;;1.20;;
351;SDS011;164;50.784;6.496;2023-04-24T00:18:06;3.05;;;1.90;;
351;SDS011;164;50.784;6.496;2023-04-24T00:20:33;2.78;;;1.83;;
351;SDS011;164;50.784;6.496;2023-04-24T00:23:01;4.65;;;1.77;;
351;SDS011;164;50.784;6.496;2023-04-24T00:25:28;1.40;;;1.25;;
351;SDS011;164;50.784;6.496;2023-04-24T00:27:55;2.10;;;1.90;;
351;SDS011;164;50.784;6.496;2023-04-24T00:30:22;2.88;;;1.85;;
351;SDS011;164;50.784;6.496;2023-04-24T00:32:51;3.15;;;1.45;;
351;SDS011;164;50.784;6.496;2023-04-24T00:35:18;3.13;;;1.60;;
351;SDS011;164;50.784;6.496;2023-04-24T00:37:45;2.70;;;1.48;;
351;SDS011;164;50.784;6.496;2023-04-24T00:40:12;2.47;;;1.73;;
351;SDS011;164;50.784;6.496;2023-04-24T00:42:40;2.13;;;2.00;;
351;SDS011;164;50.784;6.496;2023-04-24T00:45:07;1.40;;;1.33;;
351;SDS011;164;50.784;6.496;2023-04-24T00:47:35;1.88;;;1.52;;
351;SDS011;164;50.784;6.496;2023-04-24T00:50:03;1.95;;;1.67;;
351;SDS011;164;50.784;6.496;2023-04-24T00:52:31;2.28;;;1.50;;
351;SDS011;164;50.784;6.496;2023-04-24T00:54:58;2.30;;;2.10;;
351;SDS011;164;50.784;6.496;2023-04-24T00:57:25;3.00;;;2.80;;
351;SDS011;164;50.784;6.496;2023-04-24T00:59:52;2.90;;;2.70;;
351;SDS011;164;50.784;6.496;2023-04-24T01:02:20;3.83;;;3.30;;
351;SDS011;164;50.784;6.496;2023-04-24T01:04:49;4.95;;;3.75;;
351;SDS011;164;50.784;6.496;2023-04-24T01:07:19;3.30;;;3.10;;
351;SDS011;164;50.784;6.496;2023-04-24T01:09:47;3.42;;;3.22;;
351;SDS011;164;50.784;6.496;2023-04-24T01:12:16;3.92;;;3.75;;
351;SDS011;164;50.784;6.496;2023-04-24T01:14:43;4.57;;;4.18;;
351;SDS011;164;50.784;6.496;2023-04-24T01:17:10;4.03;;;3.83;;
351;SDS011;164;50.784;6.496;2023-04-24T01:19:38;4.65;;;4.35;;
351;SDS011;164;50.784;6.496;2023-04-24T01:22:10;3.53;;;3.33;;
351;SDS011;164;50.784;6.496;2023-04-24T01:24:37;5.38;;;3.78;;
351;SDS011;164;50.784;6.496;2023-04-24T01:27:05;3.78;;;3.58;;
351;SDS011;164;50.784;6.496;2023-04-24T01:29:32;3.85;;;3.65;;
351;SDS011;164;50.784;6.496;2023-04-24T01:31:59;8.18;;;4.25;;
351;SDS011;164;50.784;6.496;2023-04-24T01:34:26;4.55;;;4.25;;
351;SDS011;164;50.784;6.496;2023-04-24T01:36:54;4.90;;;4.60;;
351;SDS011;164;50.784;6.496;2023-04-24T01:39:23;3.95;;;3.75;;
351;SDS011;164;50.784;6.496;2023-04-24T01:41:51;4.18;;;3.92;;
351;SDS011;164;50.784;6.496;2023-04-24T01:44:18;4.43;;;4.13;;
351;SDS011;164;50.784;6.496;2023-04-24T01:46:45;5.35;;;5.05;;
351;SDS011;164;50.784;6.496;2023-04-24T01:49:13;4.82;;;4.47;;
351;SDS011;164;50.784;6.496;2023-04-24T01:51:40;4.53;;;4.22;;
351;SDS011;164;50.784;6.496;2023-04-24T01:54:07;6.68;;;6.30;;
351;SDS011;164;50.784;6.496;2023-04-24T01:56:36;6.18;;;5.45;;
351;SDS011;164;50.784;6.496;2023-04-24T01:59:03;6.75;;;6.35;;
351;SDS011;164;50.784;6.496;2023-04-24T02:01:32;6.53;;;6.13;;
351;SDS011;164;50.784;6.496;2023-04-24T02:04:00;6.57;;;6.18;;
351;SDS011;164;50.784;6.496;2023-04-24T02:06:27;6.75;;;6.35;;
351;SDS011;164;50.784;6.496;2023-04-24T02:08:54;6.18;;;5.25;;
351;SDS011;164;50.784;6.496;2023-04-24T02:11:21;6.63;;;6.22;;
351;SDS011;164;50.784;6.496;2023-04-24T02:13:50;8.15;;;6.75;;
351;SDS011;164;50.784;6.496;2023-04-24T02:16:17;6.18;;;5.88;;
351;SDS011;164;50.784;6.496;2023-04-24T02:18:44;7.90;;;7.43;;
351;SDS011;164;50.784;6.496;2023-04-24T02:21:11;6.70;;;6.30;;
351;SDS011;164;50.784;6.496;2023-04-24T02:23:38;6.93;;;6.53;;
351;SDS011;164;50.784;6.496;2023-04-24T02:26:06;9.05;;;7.75;;
351;SDS011;164;50.784;6.496;2023-04-24T02:28:33;10.48;;;7.57;;
351;SDS011;164;50.784;6.496;2023-04-24T02:31:02;10.38;;;7.68;;
351;SDS011;164;50.784;6.496;2023-04-24T02:33:29;7.93;;;7.53;;
351;SDS011;164;50.784;6.496;2023-04-24T02:35:56;9.30;;;7.40;;
351;SDS011;164;50.784;6.496;2023-04-24T02:38:23;8.25;;;7.82;;
351;SDS011;164;50.784;6.496;2023-04-24T02:40:50;8.88;;;8.38;;
351;SDS011;164;50.784;6.496;2023-04-24T02:43:17;8.90;;;7.75;;
351;SDS011;164;50.784;6.496;2023-04-24T02:45:45;8.57;;;8.07;;
351;SDS011;164;50.784;6.496;2023-04-24T02:48:13;9.32;;;8.55;;
351;SDS011;164;50.784;6.496;2023-04-24T02:50:40;8.05;;;7.65;;
351;SDS011;164;50.784;6.496;2023-04-24T02:53:07;8.63;;;8.15;;
351;SDS011;164;50.784;6.496;2023-04-24T02:55:35;9.25;;;8.00;;
351;SDS011;164;50.784;6.496;2023-04-24T02:58:02;8.02;;;7.63;;
351;SDS011;164;50.784;6.496;2023-04-24T03:00:29;11.68;;;9.32;;
351;SDS011;164;50.784;6.496;2023-04-24T03:02:56;10.57;;;7.50;;
351;SDS011;164;50.784;6.496;2023-04-24T03:05:24;13.30;;;8.50;;
351;SDS011;164;50.784;6.496;2023-04-24T03:07:52;8.25;;;7.85;;
351;SDS011;164;50.784;6.496;2023-04-24T03:10:19;7.00;;;6.60;;
351;SDS011;164;50.784;6.496;2023-04-24T03:12:47;7.00;;;6.60;;
351;SDS011;164;50.784;6.496;2023-04-24T03:15:14;7.80;;;7.40;;
351;SDS011;164;50.784;6.496;2023-04-24T03:17:42;8.13;;;7.30;;
351;SDS011;164;50.784;6.496;2023-04-24T03:20:09;13.77;;;8.90;;
351;SDS011;164;50.784;6.496;2023-04-24T03:22:37;10.02;;;7.60;;
351;SDS011;164;50.784;6.496;2023-04-24T03:25:05;8.52;;;7.75;;
351;SDS011;164;50.784;6.496;2023-04-24T03:27:34;7.72;;;6.93;;
351;SDS011;164;50.784;6.496;2023-04-24T03:30:01;8.68;;;8.23;;
351;SDS011;164;50.784;6.496;2023-04-24T03:32:29;10.40;;;7.10;;
351;SDS011;164;50.784;6.496;2023-04-24T03:34:57;7.97;;;7.57;;
351;SDS011;164;50.784;6.496;2023-04-24T03:37:24;9.48;;;8.85;;
351;SDS011;164;50.784;6.496;2023-04-24T03:39:52;13.98;;;7.95;;
351;SDS011;164;50.784;6.496;2023-04-24T03:42:20;10.20;;;9.60;;
351;SDS011;164;50.784;6.496;2023-04-24T03:44:47;8.90;;;7.35;;
351;SDS011;164;50.784;6.496;2023-04-24T03:47:14;9.98;;;8.80;;
351;SDS011;164;50.784;6.496;2023-04-24T03:49:41;9.52;;;8.98;;
351;SDS011;164;50.784;6.496;2023-04-24T03:52:08;7.20;;;6.80;;
351;SDS011;164;50.784;6.496;2023-04-24T03:54:35;8.80;;;8.30;;
351;SDS011;164;50.784;6.496;2023-04-24T03:57:04;8.57;;;6.70;;
351;SDS011;164;50.784;6.496;2023-04-24T03:59:31;9.85;;;8.05;;
351;SDS011;164;50.784;6.496;2023-04-24T04:01:58;11.73;;;7.18;;
351;SDS011;164;50.784;6.496;2023-04-24T04:04:25;10.38;;;7.95;;
351;SDS011;164;50.784;6.496;2023-04-24T04:06:52;8.07;;;7.00;;
351;SDS011;164;50.784;6.496;2023-04-24T04:09:19;9.20;;;6.72;;
351;SDS011;164;50.784;6.496;2023-04-24T04:11:46;8.90;;;8.00;;
351;SDS011;164;50.784;6.496;2023-04-24T04:14:15;7.20;;;6.07;;
351;SDS011;164;50.784;6.496;2023-04-24T04:16:42;7.80;;;7.43;;
351;SDS011;164;50.784;6.496;2023-04-24T04:19:09;6.85;;;6.43;;
351;SDS011;164;50.784;6.496;2023-04-24T04:21:36;8.90;;;7.80;;
351;SDS011;164;50.784;6.496;2023-04-24T04:24:03;10.75;;;8.25;;
351;SDS011;164;50.784;6.496;2023-04-24T04:26:32;8.65;;;7.97;;
351;SDS011;164;50.784;6.496;2023-04-24T04:29:00;11.25;;;7.80;;
351;SDS011;164;50.784;6.496;2023-04-24T04:31:29;7.63;;;7.20;;
351;SDS011;164;50.784;6.496;2023-04-24T04:33:57;10.85;;;6.65;;
351;SDS011;164;50.784;6.496;2023-04-24T04:36:24;7.93;;;7.53;;
351;SDS011;164;50.784;6.496;2023-04-24T04:38:51;9.18;;;8.70;;
351;SDS011;164;50.784;6.496;2023-04-24T04:41:19;9.40;;;7.80;;
351;SDS011;164;50.784;6.496;2023-04-24T04:43:46;12.98;;;7.50;;
351;SDS011;164;50.784;6.496;2023-04-24T04:46:13;9.57;;;7.85;;
351;SDS011;164;50.784;6.496;2023-04-24T04:48:42;8.90;;;8.35;;
351;SDS011;164;50.784;6.496;2023-04-24T04:51:09;8.23;;;7.38;;
351;SDS011;164;50.784;6.496;2023-04-24T04:53:36;8.88;;;8.38;;
351;SDS011;164;50.784;6.496;2023-04-24T04:56:04;10.70;;;8.30;;
351;SDS011;164;50.784;6.496;2023-04-24T04:58:31;12.82;;;10.23;;
351;SDS011;164;50.784;6.496;2023-04-24T05:00:58;9.63;;;7.65;;
351;SDS011;164;50.784;6.496;2023-04-24T05:03:25;7.07;;;6.68;;
351;SDS011;164;50.784;6.496;2023-04-24T05:05:54;6.80;;;6.45;;
351;SDS011;164;50.784;6.496;2023-04-24T05:08:21;6.00;;;5.70;;
351;SDS011;164;50.784;6.496;2023-04-24T05:10:48;6.25;;;5.88;;
351;SDS011;164;50.784;6.496;2023-04-24T05:13:15;7.60;;;5.88;;
351;SDS011;164;50.784;6.496;2023-04-24T05:15:42;5.88;;;5.57;;
351;SDS011;164;50.784;6.496;2023-04-24T05:18:09;7.05;;;6.65;;
351;SDS011;164;50.784;6.496;2023-04-24T05:20:36;5.93;;;5.63;;
351;SDS011;164;50.784;6.496;2023-04-24T05:23:05;6.13;;;5.82;;
351;SDS011;164;50.784;6.496;2023-04-24T05:25:32;4.80;;;4.50;;
351;SDS011;164;50.784;6.496;2023-04-24T05:28:00;6.40;;;4.90;;
351;SDS011;164;50.784;6.496;2023-04-24T05:30:27;4.80;;;4.50;;
351;SDS011;164;50.784;6.496;2023-04-24T05:32:54;5.05;;;4.78;;
351;SDS011;164;50.784;6.496;2023-04-24T05:35:21;3.47;;;3.28;;
351;SDS011;164;50.784;6.496;2023-04-24T05:37:48;3.50;;;3.30;;
351;SDS011;164;50.784;6.496;2023-04-24T05:40:17;5.97;;;5.15;;
351;SDS011;164;50.784;6.496;2023-04-24T05:42:58;3.50;;;3.25;;
351;SDS011;164;50.784;6.496;2023-04-24T05:45:25;4.88;;;3.40;;
351;SDS011;164;50.784;6.496;2023-04-24T05:47:53;2.30;;;2.10;;
351;SDS011;164;50.784;6.496;2023-04-24T05:50:20;4.05;;;3.65;;
351;SDS011;164;50.784;6.496;2023-04-24T05:52:47;5.05;;;4.10;;
351;SDS011;164;50.784;6.496;2023-04-24T05:55:16;3.85;;;3.58;;
351;SDS011;164;50.784;6.496;2023-04-24T05:57:44;5.70;;;3.53;;
351;SDS011;164;50.784;6.496;2023-04-24T06:00:25;3.22;;;3.03;;
351;SDS011;164;50.784;6.496;2023-04-24T06:02:53;3.55;;;2.83;;
351;SDS011;164;50.784;6.496;2023-04-24T06:05:20;6.75;;;4.15;;
351;SDS011;164;50.784;6.496;2023-04-24T06:08:02;4.68;;;3.38;;
351;SDS011;164;50.784;6.496;2023-04-24T06:10:30;4.03;;;3.78;;
351;SDS011;164;50.784;6.496;2023-04-24T06:12:58;2.85;;;2.65;;
351;SDS011;164;50.784;6.496;2023-04-24T06:15:39;3.67;;;2.30;;
351;SDS011;164;50.784;6.496;2023-04-24T06:18:06;6.13;;;3.45;;
351;SDS011;164;50.784;6.496;2023-04-24T06:20:48;2.90;;;2.70;;
351;SDS011;164;50.784;6.496;2023-04-24T06:23:16;2.00;;;1.90;;
351;SDS011;164;50.784;6.496;2023-04-24T06:26:02;3.10;;;1.80;;
351;SDS011;164;50.784;6.496;2023-04-24T06:28:29;1.90;;;1.80;;
351;SDS011;164;50.784;6.496;2023-04-24T06:30:56;2.05;;;1.95;;
351;SDS011;164;50.784;6.496;2023-04-24T06:33:24;2.40;;;2.20;;
351;SDS011;164;50.784;6.496;2023-04-24T06:35:51;2.72;;;2.17;;
351;SDS011;164;50.784;6.496;2023-04-24T06:38:18;2.30;;;2.10;;
351;SDS011;164;50.784;6.496;2023-04-24T06:40:46;2.17;;;2.00;;
351;SDS011;164;50.784;6.496;2023-04-24T06:43:14;2.25;;;2.05;;
351;SDS011;164;50.784;6.496;2023-04-24T06:45:42;1.90;;;1.80;;
351;SDS011;164;50.784;6.496;2023-04-24T06:48:10;1.88;;;1.77;;
351;SDS011;164;50.784;6.496;2023-04-24T06:50:37;3.38;;;2.95;;
351;SDS011;164;50.784;6.496;2023-04-24T06:53:04;2.42;;;2.30;;
351;SDS011;164;50.784;6.496;2023-04-24T06:55:32;2.85;;;2.65;;
351;SDS011;164;50.784;6.496;2023-04-24T06:57:59;2.95;;;2.60;;
351;SDS011;164;50.784;6.496;2023-04-24T07:03:10;3.53;;;2.83;;
351;SDS011;164;50.784;6.496;2023-04-24T07:05:51;3.03;;;2.42;;
351;SDS011;164;50.784;6.496;2023-04-24T07:08:18;2.28;;;2.08;;
351;SDS011;164;50.784;6.496;2023-04-24T07:10:47;2.33;;;2.17;;
351;SDS011;164;50.784;6.496;2023-04-24T07:13:14;2.10;;;1.95;;
351;SDS011;164;50.784;6.496;2023-04-24T07:15:41;2.22;;;2.03;;
351;SDS011;164;50.784;6.496;2023-04-24T07:18:10;2.47;;;2.28;;
351;SDS011;164;50.784;6.496;2023-04-24T07:20:37;2.67;;;2.47;;
351;SDS011;164;50.784;6.496;2023-04-24T07:23:04;2.50;;;2.30;;
351;SDS011;164;50.784;6.496;2023-04-24T07:25:32;3.00;;;2.08;;
351;SDS011;164;50.784;6.496;2023-04-24T07:27:59;2.17;;;1.75;;
351;SDS011;164;50.784;6.496;2023-04-24T07:30:26;2.25;;;2.05;;
351;SDS011;164;50.784;6.496;2023-04-24T07:32:54;2.30;;;2.10;;
351;SDS011;164;50.784;6.496;2023-04-24T07:35:23;2.75;;;2.60;;
351;SDS011;164;50.784;6.496;2023-04-24T07:37:51;2.58;;;2.10;;
351;SDS011;164;50.784;6.496;2023-04-24T07:40:18;2.65;;;2.17;;
351;SDS011;164;50.784;6.496;2023-04-24T07:42:46;2.30;;;2.13;;
351;SDS011;164;50.784;6.496;2023-04-24T07:45:14;3.35;;;2.70;;
351;SDS011;164;50.784;6.496;2023-04-24T07:47:55;2.80;;;2.60;;
351;SDS011;164;50.784;6.496;2023-04-24T07:50:24;2.88;;;2.38;;
351;SDS011;164;50.784;6.496;2023-04-24T07:52:51;3.00;;;2.80;;
351;SDS011;164;50.784;6.496;2023-04-24T07:55:19;2.95;;;2.75;;
351;SDS011;164;50.784;6.496;2023-04-24T07:57:46;4.63;;;2.83;;
351;SDS011;164;50.784;6.496;2023-04-24T08:00:13;3.97;;;3.30;;
351;SDS011;164;50.784;6.496;2023-04-24T08:02:41;3.88;;;3.50;;
351;SDS011;164;50.784;6.496;2023-04-24T08:05:09;3.38;;;3.17;;
351;SDS011;164;50.784;6.496;2023-04-24T08:07:37;4.00;;;3.80;;
351;SDS011;164;50.784;6.496;2023-04-24T08:10:05;4.35;;;4.07;;
351;SDS011;164;50.784;6.496;2023-04-24T08:12:47;5.78;;;5.38;;
351;SDS011;164;50.784;6.496;2023-04-24T08:15:14;5.93;;;5.45;;
351;SDS011;164;50.784;6.496;2023-04-24T08:17:41;5.72;;;5.28;;
351;SDS011;164;50.784;6.496;2023-04-24T08:20:09;5.35;;;5.05;;
351;SDS011;164;50.784;6.496;2023-04-24T08:22:40;5.97;;;5.68;;
351;SDS011;164;50.784;6.496;2023-04-24T08:25:08;5.50;;;5.20;;
351;SDS011;164;50.784;6.496;2023-04-24T08:27:36;6.07;;;5.78;;
351;SDS011;164;50.784;6.496;2023-04-24T08:30:04;8.68;;;6.70;;
351;SDS011;164;50.784;6.496;2023-04-24T08:32:31;9.27;;;6.82;;
351;SDS011;164;50.784;6.496;2023-04-24T08:34:59;8.55;;;8.05;;
351;SDS011;164;50.784;6.496;2023-04-24T08:37:26;9.18;;;8.70;;
351;SDS011;164;50.784;6.496;2023-04-24T08:39:55;8.00;;;7.60;;
351;SDS011;164;50.784;6.496;2023-04-24T08:42:23;10.15;;;8.40;;
351;SDS011;164;50.784;6.496;2023-04-24T08:44:50;8.57;;;7.88;;
351;SDS011;164;50.784;6.496;2023-04-24T08:47:17;9.15;;;8.65;;
351;SDS011;164;50.784;6.496;2023-04-24T08:49:45;9.25;;;8.75;;
351;SDS011;164;50.784;6.496;2023-04-24T08:52:14;9.65;;;9.10;;
351;SDS011;164;50.784;6.496;2023-04-24T08:54:42;9.40;;;8.90;;
351;SDS011;164;50.784;6.496;2023-04-24T08:57:12;11.23;;;9.30;;
351;SDS011;164;50.784;6.496;2023-04-24T08:59:40;12.48;;;10.70;;
351;SDS011;164;50.784;6.496;2023-04-24T09:02:08;10.60;;;9.13;;
351;SDS011;164;50.784;6.496;2023-04-24T09:04:36;7.90;;;7.50;;
351;SDS011;164;50.784;6.496;2023-04-24T09:07:04;6.22;;;5.65;;
351;SDS011;164;50.784;6.496;2023-04-24T09:09:33;6.25;;;5.93;;
351;SDS011;164;50.784;6.496;2023-04-24T09:12:01;6.50;;;6.10;;
351;SDS011;164;50.784;6.496;2023-04-24T09:14:30;8.10;;;6.30;;
351;SDS011;164;50.784;6.496;2023-04-24T09:16:58;5.90;;;5.50;;
351;SDS011;164;50.784;6.496;2023-04-24T09:19:25;7.57;;;6.47;;
351;SDS011;164;50.784;6.496;2023-04-24T09:21:52;7.90;;;6.00;;
351;SDS011;164;50.784;6.496;2023-04-24T09:24:20;6.47;;;6.03;;
351;SDS011;164;50.784;6.496;2023-04-24T09:26:48;7.70;;;7.30;;
351;SDS011;164;50.784;6.496;2023-04-24T09:29:16;8.65;;;8.18;;
351;SDS011;164;50.784;6.496;2023-04-24T09:31:45;8.45;;;7.97;;
351;SDS011;164;50.784;6.496;2023-04-24T09:34:12;7.78;;;7.38;;
351;SDS011;164;50.784;6.496;2023-04-24T09:36:40;8.05;;;7.65;;
351;SDS011;164;50.784;6.496;2023-04-24T09:39:09;9.00;;;8.25;;
351;SDS011;164;50.784;6.496;2023-04-24T09:41:43;8.80;;;7.72;;
351;SDS011;164;50.784;6.496;2023-04-24T09:44:11;8.57;;;7.72;;
351;SDS011;164;50.784;6.496;2023-04-24T09:46:40;7.25;;;6.93;;
351;SDS011;164;50.784;6.496;2023-04-24T09:49:09;7.35;;;6.95;;
351;SDS011;164;50.784;6.496;2023-04-24T09:51:37;6.88;;;6.47;;
351;SDS011;164;50.784;6.496;2023-04-24T09:54:11;8.20;;;6.88;;
351;SDS011;164;50.784;6.496;2023-04-24T09:56:42;6.60;;;6.25;;
351;SDS011;164;50.784;6.496;2023-04-24T09:59:10;6.88;;;6.07;;
351;SDS011;164;50.784;6.496;2023-04-24T10:01:39;8.32;;;6.00;;
351;SDS011;164;50.784;6.496;2023-04-24T10:04:20;7.65;;;6.47;;
351;SDS011;164;50.784;6.496;2023-04-24T10:06:49;7.57;;;5.43;;
351;SDS011;164;50.784;6.496;2023-04-24T10:09:17;8.82;;;6.57;;
351;SDS011;164;50.784;6.496;2023-04-24T10:11:44;9.35;;;7.72;;
351;SDS011;164;50.784;6.496;2023-04-24T10:14:12;8.63;;;8.13;;
351;SDS011;164;50.784;6.496;2023-04-24T10:16:39;13.93;;;9.40;;
351;SDS011;164;50.784;6.496;2023-04-24T10:19:07;10.02;;;9.52;;
351;SDS011;164;50.784;6.496;2023-04-24T10:21:36;11.98;;;11.38;;
351;SDS011;164;50.784;6.496;2023-04-24T10:24:07;14.10;;;11.07;;
351;SDS011;164;50.784;6.496;2023-04-24T10:26:35;12.45;;;11.85;;
351;SDS011;164;50.784;6.496;2023-04-24T10:29:02;13.80;;;13.10;;
351;SDS011;164;50.784;6.496;2023-04-24T10:31:34;16.25;;;12.68;;
351;SDS011;164;50.784;6.496;2023-04-24T10:34:02;12.05;;;11.45;;
351;SDS011;164;50.784;6.496;2023-04-24T10:36:30;9.85;;;9.35;;
351;SDS011;164;50.784;6.496;2023-04-24T10:39:00;11.57;;;9.02;;
351;SDS011;164;50.784;6.496;2023-04-24T10:41:28;7.78;;;6.40;;
351;SDS011;164;50.784;6.496;2023-04-24T10:44:06;7.30;;;6.90;;
351;SDS011;164;50.784;6.496;2023-04-24T10:46:33;8.60;;;6.43;;
351;SDS011;164;50.784;6.496;2023-04-24T10:49:03;6.60;;;6.20;;
351;SDS011;164;50.784;6.496;2023-04-24T10:54:25;6.13;;;5.82;;
351;SDS011;164;50.784;6.496;2023-04-24T10:56:52;8.95;;;6.00;;
351;SDS011;164;50.784;6.496;2023-04-24T10:59:26;9.27;;;6.03;;
351;SDS011;164;50.784;6.496;2023-04-24T11:01:54;10.32;;;5.97;;
351;SDS011;164;50.784;6.496;2023-04-24T11:04:31;5.70;;;5.30;;
351;SDS011;164;50.784;6.496;2023-04-24T11:06:58;6.25;;;5.18;;
351;SDS011;164;50.784;6.496;2023-04-24T11:09:27;10.52;;;6.13;;
351;SDS011;164;50.784;6.496;2023-04-24T11:12:02;9.27;;;5.95;;
351;SDS011;164;50.784;6.496;2023-04-24T11:14:31;6.68;;;6.18;;
351;SDS011;164;50.784;6.496;2023-04-24T11:17:27;7.50;;;5.88;;
351;SDS011;164;50.784;6.496;2023-04-24T11:19:55;8.13;;;7.13;;
351;SDS011;164;50.784;6.496;2023-04-24T11:22:27;7.20;;;6.22;;
351;SDS011;164;50.784;6.496;2023-04-24T11:24:57;7.22;;;6.43;;
351;SDS011;164;50.784;6.496;2023-04-24T11:27:29;7.75;;;6.47;;
351;SDS011;164;50.784;6.496;2023-04-24T11:30:01;7.10;;;6.70;;
351;SDS011;164;50.784;6.496;2023-04-24T11:32:29;7.57;;;7.05;;
351;SDS011;164;50.784;6.496;2023-04-24T11:34:58;10.68;;;7.55;;
351;SDS011;164;50.784;6.496;2023-04-24T11:37:26;6.97;;;6.60;;
351;SDS011;164;50.784;6.496;2023-04-24T11:39:55;10.50;;;8.30;;
351;SDS011;164;50.784;6.496;2023-04-24T11:42:24;10.55;;;7.90;;
351;SDS011;164;50.784;6.496;2023-04-24T11:44:52;10.48;;;7.90;;
351;SDS011;164;50.784;6.496;2023-04-24T11:47:20;11.77;;;9.55;;
351;SDS011;164;50.784;6.496;2023-04-24T11:49:50;11.55;;;9.02;;
351;SDS011;164;50.784;6.496;2023-04-24T11:52:19;9.45;;;8.95;;
351;SDS011;164;50.784;6.496;2023-04-24T11:54:47;11.63;;;8.07;;
351;SDS011;164;50.784;6.496;2023-04-24T11:57:14;10.60;;;8.10;;
351;SDS011;164;50.784;6.496;2023-04-24T11:59:43;11.38;;;7.10;;
351;SDS011;164;50.784;6.496;2023-04-24T12:02:19;12.80;;;7.63;;
351;SDS011;164;50.784;6.496;2023-04-24T12:04:47;7.03;;;6.15;;
351;SDS011;164;50.784;6.496;2023-04-24T12:07:14;8.00;;;6.47;;
351;SDS011;164;50.784;6.496;2023-04-24T12:09:41;9.57;;;7.35;;
351;SDS011;164;50.784;6.496;2023-04-24T12:12:09;7.80;;;6.03;;
351;SDS011;164;50.784;6.496;2023-04-24T12:14:43;9.43;;;5.60;;
351;SDS011;164;50.784;6.496;2023-04-24T12:17:10;8.52;;;5.60;;
351;SDS011;164;50.784;6.496;2023-04-24T12:19:37;10.00;;;5.68;;
351;SDS011;164;50.784;6.496;2023-04-24T12:22:05;8.23;;;5.43;;
351;SDS011;164;50.784;6.496;2023-04-24T12:24:33;5.93;;;4.35;;
351;SDS011;164;50.784;6.496;2023-04-24T12:27:00;7.47;;;6.25;;
351;SDS011;164;50.784;6.496;2023-04-24T12:29:27;9.55;;;5.38;;
351;SDS011;164;50.784;6.496;2023-04-24T12:31:56;8.20;;;5.57;;
351;SDS011;164;50.784;6.496;2023-04-24T12:34:24;5.38;;;5.10;;
351;SDS011;164;50.784;6.496;2023-04-24T12:36:52;6.40;;;5.20;;
351;SDS011;164;50.784;6.496;2023-04-24T12:39:19;8.55;;;5.80;;
351;SDS011;164;50.784;6.496;2023-04-24T12:41:50;11.00;;;7.05;;
351;SDS011;164;50.784;6.496;2023-04-24T12:44:18;5.55;;;5.25;;
351;SDS011;164;50.784;6.496;2023-04-24T12:46:45;8.23;;;5.80;;
351;SDS011;164;50.784;6.496;2023-04-24T12:49:14;6.65;;;4.80;;
351;SDS011;164;50.784;6.496;2023-04-24T12:51:41;6.63;;;4.97;;
351;SDS011;164;50.784;6.496;2023-04-24T12:54:08;5.82;;;4.95;;
351;SDS011;164;50.784;6.496;2023-04-24T12:56:37;8.23;;;5.30;;
351;SDS011;164;50.784;6.496;2023-04-24T12:59:04;6.07;;;5.43;;
351;SDS011;164;50.784;6.496;2023-04-24T13:01:31;5.55;;;5.25;;
351;SDS011;164;50.784;6.496;2023-04-24T13:03:59;7.82;;;6.07;;
351;SDS011;164;50.784;6.496;2023-04-24T13:06:27;7.78;;;6.25;;
351;SDS011;164;50.784;6.496;2023-04-24T13:08:56;6.20;;;5.60;;
351;SDS011;164;50.784;6.496;2023-04-24T13:11:23;14.05;;;5.95;;
351;SDS011;164;50.784;6.496;2023-04-24T13:13:50;7.82;;;6.35;;
351;SDS011;164;50.784;6.496;2023-04-24T13:16:18;5.75;;;5.45;;
351;SDS011;164;50.784;6.496;2023-04-24T13:18:45;9.88;;;6.80;;
351;SDS011;164;50.784;6.496;2023-04-24T13:21:12;6.68;;;5.25;;
351;SDS011;164;50.784;6.496;2023-04-24T13:23:41;9.13;;;6.32;;
351;SDS011;164;50.784;6.496;2023-04-24T13:26:08;5.88;;;5.57;;
351;SDS011;164;50.784;6.496;2023-04-24T13:28:35;9.45;;;6.90;;
351;SDS011;164;50.784;6.496;2023-04-24T13:31:03;11.98;;;6.50;;
351;SDS011;164;50.784;6.496;2023-04-24T13:33:31;7.70;;;5.47;;
351;SDS011;164;50.784;6.496;2023-04-24T13:35:58;7.60;;;6.53;;
351;SDS011;164;50.784;6.496;2023-04-24T13:38:26;9.50;;;6.40;;
351;SDS011;164;50.784;6.496;2023-04-24T13:40:55;10.30;;;7.05;;
351;SDS011;164;50.784;6.496;2023-04-24T13:43:22;7.25;;;6.30;;
351;SDS011;164;50.784;6.496;2023-04-24T13:45:49;7.40;;;5.10;;
351;SDS011;164;50.784;6.496;2023-04-24T13:48:17;7.75;;;6.05;;
351;SDS011;164;50.784;6.496;2023-04-24T13:50:44;7.82;;;5.00;;
351;SDS011;164;50.784;6.496;2023-04-24T13:53:13;4.95;;;4.63;;
351;SDS011;164;50.784;6.496;2023-04-24T13:55:40;8.63;;;6.00;;
351;SDS011;164;50.784;6.496;2023-04-24T13:58:09;10.10;;;5.18;;
351;SDS011;164;50.784;6.496;2023-04-24T14:00:36;7.25;;;4.82;;
351;SDS011;164;50.784;6.496;2023-04-24T14:03:04;6.18;;;5.28;;
351;SDS011;164;50.784;6.496;2023-04-24T14:05:31;5.15;;;4.68;;
351;SDS011;164;50.784;6.496;2023-04-24T14:07:58;5.82;;;4.85;;
351;SDS011;164;50.784;6.496;2023-04-24T14:10:26;6.03;;;4.82;;
351;SDS011;164;50.784;6.496;2023-04-24T14:12:53;5.53;;;4.10;;
351;SDS011;164;50.784;6.496;2023-04-24T14:15:22;6.55;;;4.85;;
351;SDS011;164;50.784;6.496;2023-04-24T14:17:49;4.85;;;4.55;;
351;SDS011;164;50.784;6.496;2023-04-24T14:20:17;5.32;;;4.78;;
351;SDS011;164;50.784;6.496;2023-04-24T14:22:44;4.80;;;4.50;;
351;SDS011;164;50.784;6.496;2023-04-24T14:25:12;7.60;;;4.65;;
351;SDS011;164;50.784;6.496;2023-04-24T14:27:40;4.80;;;3.85;;
351;SDS011;164;50.784;6.496;2023-04-24T14:30:07;4.32;;;3.85;;
351;SDS011;164;50.784;6.496;2023-04-24T14:32:37;5.78;;;4.00;;
351;SDS011;164;50.784;6.496;2023-04-24T14:35:05;6.65;;;4.28;;
351;SDS011;164;50.784;6.496;2023-04-24T14:37:32;6.03;;;4.20;;
351;SDS011;164;50.784;6.496;2023-04-24T14:40:01;4.80;;;3.88;;
351;SDS011;164;50.784;6.496;2023-04-24T14:42:31;4.97;;;3.95;;
351;SDS011;164;50.784;6.496;2023-04-24T14:44:58;6.43;;;5.57;;
351;SDS011;164;50.784;6.496;2023-04-24T14:47:26;5.40;;;5.10;;
351;SDS011;164;50.784;6.496;2023-04-24T14:49:55;6.13;;;4.63;;
351;SDS011;164;50.784;6.496;2023-04-24T14:52:23;5.50;;;5.13;;
351;SDS011;164;50.784;6.496;2023-04-24T14:54:50;4.65;;;4.35;;
351;SDS011;164;50.784;6.496;2023-04-24T14:57:17;5.55;;;4.43;;
351;SDS011;164;50.784;6.496;2023-04-24T14:59:44;5.68;;;4.65;;
351;SDS011;164;50.784;6.496;2023-04-24T15:02:12;4.80;;;4.50;;
351;SDS011;164;50.784;6.496;2023-04-24T15:04:39;7.28;;;5.30;;
351;SDS011;164;50.784;6.496;2023-04-24T15:07:07;6.22;;;5.50;;
351;SDS011;164;50.784;6.496;2023-04-24T15:09:34;4.82;;;3.97;;
351;SDS011;164;50.784;6.496;2023-04-24T15:12:02;4.35;;;4.05;;
351;SDS011;164;50.784;6.496;2023-04-24T15:14:29;5.03;;;3.83;;
351;SDS011;164;50.784;6.496;2023-04-24T15:16:56;5.25;;;3.33;;
351;SDS011;164;50.784;6.496;2023-04-24T15:19:23;3.55;;;3.40;;
351;SDS011;164;50.784;6.496;2023-04-24T15:21:51;3.70;;;3.58;;
351;SDS011;164;50.784;6.496;2023-04-24T15:24:19;4.10;;;3.78;;
351;SDS011;164;50.784;6.496;2023-04-24T15:26:46;7.20;;;4.78;;
351;SDS011;164;50.784;6.496;2023-04-24T15:29:14;5.85;;;4.10;;
351;SDS011;164;50.784;6.496;2023-04-24T15:31:41;4.43;;;4.10;;
351;SDS011;164;50.784;6.496;2023-04-24T15:34:08;6.53;;;4.40;;
351;SDS011;164;50.784;6.496;2023-04-24T15:36:35;6.40;;;4.00;;
351;SDS011;164;50.784;6.496;2023-04-24T15:39:03;5.15;;;4.03;;
351;SDS011;164;50.784;6.496;2023-04-24T15:41:31;5.40;;;4.60;;
351;SDS011;164;50.784;6.496;2023-04-24T15:43:59;4.10;;;3.90;;
351;SDS011;164;50.784;6.496;2023-04-24T15:46:26;5.80;;;4.65;;
351;SDS011;164;50.784;6.496;2023-04-24T15:48:53;5.70;;;4.45;;
351;SDS011;164;50.784;6.496;2023-04-24T15:51:20;7.88;;;5.30;;
351;SDS011;164;50.784;6.496;2023-04-24T15:53:48;7.40;;;4.07;;